KGIF/GIF METAR and TAF weather

Enter ICAO airport designator
Station Type Date Time Source
KGIF METAR 2021/04/18 02:53 UTC NOAA

KGIF 180253Z AUTO 23006KT 10SM CLR 24/21 A2991 RMK AO2 SLP126 T02390206 53012


Station Type Date Time Source
KGIF Decoded METAR 2021/04/18 02:53 UTC NOAA

WINTER HAVENS GILBERT AIRPORT , FL, United States (KGIF) 28-04N 81-45W 43M
Apr 17, 2021 - 10:53 PM EDT / 2021.04.18 0253 UTC
Wind: from the SW (230 degrees) at 7 MPH (6 KT):0
Visibility: 10 mile(s):0
Sky conditions: clear
Temperature: 75.0 F (23.9 C)
Dew Point: 69.1 F (20.6 C)
Relative Humidity: 81%
Pressure (altimeter): 29.91 in. Hg (1012 hPa)
Pressure tendency: 0.04 inches (1.2 hPa) higher than three hours ago
ob: KGIF 180253Z AUTO 23006KT 10SM CLR 24/21 A2991 RMK AO2 SLP126 T02390206 53012
cycle: 3

Station Type Date Time Source
KGIF TAF UTC NOAA

Error!

Example: see airport list